Time;durP1;ratioP1;P1;durP2;ratioP2;P2;SDS_P1;SDS_P2;PMS_P1;PMS_P2;Temp;Humidity;BMP_temperature;BMP_pressure;BME280_temperature;BME280_humidity;BME280_pressure;Samples;Min_cycle;Max_cycle;Signal;HPM_P1;HPM_P2
2022/03/24 00:01:55;;;;;;;54.53;35.17;;;6.30;99.90;;;;;;5036175;28;20083;-93
2022/03/24 00:04:22;;;;;;;50.95;35.88;;;6.30;99.90;;;;;;5037611;28;20055;-93
2022/03/24 00:06:48;;;;;;;55.75;35.13;;;6.30;99.90;;;;;;5021157;28;20136;-92
2022/03/24 00:09:14;;;;;;;52.03;35.42;;;6.30;99.90;;;;;;5004570;28;20120;-94
2022/03/24 00:11:40;;;;;;;50.60;36.22;;;6.30;99.90;;;;;;5020928;28;20044;-92
2022/03/24 00:14:07;;;;;;;50.25;35.22;;;6.50;99.90;;;;;;5003245;28;20077;-92
2022/03/24 00:16:34;;;;;;;49.33;34.25;;;6.00;99.90;;;;;;5037825;28;20494;-92
2022/03/24 00:19:00;;;;;;;55.28;36.05;;;6.00;99.90;;;;;;4988736;28;20079;-92
2022/03/24 00:21:27;;;;;;;54.10;36.45;;;5.90;99.90;;;;;;4993717;28;20124;-92
2022/03/24 00:23:53;;;;;;;59.83;36.13;;;5.90;99.90;;;;;;5021247;28;20056;-93
2022/03/24 00:26:22;;;;;;;49.45;33.97;;;5.80;99.90;;;;;;5020541;28;20123;-93
2022/03/24 00:28:48;;;;;;;54.08;37.60;;;5.70;99.90;;;;;;5004323;28;20110;-92
2022/03/24 00:31:14;;;;;;;54.47;35.65;;;5.60;99.90;;;;;;5016419;28;20085;-93
2022/03/24 00:33:40;;;;;;;50.33;36.28;;;5.60;99.90;;;;;;5020480;28;20045;-92
2022/03/24 00:36:09;;;;;;;58.97;34.58;;;5.40;99.90;;;;;;5018411;28;20053;-92
2022/03/24 00:38:42;;;;;;;52.83;33.80;;;5.40;99.90;;;;;;5024768;28;20059;-92
2022/03/24 00:41:08;;;;;;;49.67;36.60;;;5.20;99.90;;;;;;5027982;28;20612;-93
2022/03/24 00:43:34;;;;;;;49.67;35.25;;;5.20;99.90;;;;;;5020708;28;20148;-93
2022/03/24 00:46:00;;;;;;;50.45;35.75;;;5.10;99.90;;;;;;5020952;28;20049;-93
2022/03/24 00:48:26;;;;;;;64.43;35.00;;;5.00;99.90;;;;;;5036418;28;20053;-92
2022/03/24 00:50:53;;;;;;;66.07;37.45;;;5.00;99.90;;;;;;5017247;28;20045;-92
2022/03/24 00:53:19;;;;;;;60.03;38.92;;;5.10;99.90;;;;;;5015113;28;20048;-93
2022/03/24 00:55:45;;;;;;;59.90;39.15;;;5.60;99.90;;;;;;5004163;28;20049;-93
2022/03/24 00:58:13;;;;;;;57.53;36.85;;;5.20;99.90;;;;;;5020707;28;20048;-95
2022/03/24 01:00:41;;;;;;;59.60;38.13;;;5.20;99.90;;;;;;5004115;28;20502;-93
2022/03/24 01:03:07;;;;;;;59.13;39.53;;;5.30;99.90;;;;;;5003648;28;20103;-92
2022/03/24 01:05:37;;;;;;;56.38;39.70;;;5.80;99.90;;;;;;5019833;28;20088;-92
2022/03/24 01:08:05;;;;;;;;;;;5.50;99.90;;;;;;5020915;28;20041;-92
2022/03/24 01:10:31;;;;;;;61.67;39.25;;;5.50;99.90;;;;;;5019743;28;19956;-92
2022/03/24 01:12:59;;;;;;;60.40;39.67;;;5.50;99.90;;;;;;5020266;28;20037;-93
2022/03/24 01:15:26;;;;;;;66.88;39.80;;;5.50;99.90;;;;;;5003882;28;20499;-92
2022/03/24 01:17:59;;;;;;;60.10;38.28;;;5.50;99.90;;;;;;5004545;28;20053;-93
2022/03/24 01:20:29;;;;;;;52.22;35.90;;;5.90;99.90;;;;;;5004248;28;20045;-93
2022/03/24 01:22:56;;;;;;;53.70;37.58;;;5.60;99.90;;;;;;5020417;28;20059;-93
2022/03/24 01:25:23;;;;;;;57.20;38.15;;;5.30;99.90;;;;;;5000288;28;20049;-92
2022/03/24 01:27:51;;;;;;;59.78;38.55;;;5.20;99.90;;;;;;5011950;28;20049;-93
2022/03/24 01:30:17;;;;;;;60.88;37.83;;;5.10;99.90;;;;;;5002939;28;20107;-92
2022/03/24 01:32:45;;;;;;;59.17;37.50;;;5.00;99.90;;;;;;5003623;28;20485;-93
2022/03/24 01:35:13;;;;;;;61.00;38.25;;;4.90;99.90;;;;;;5036219;28;20045;-95
2022/03/24 01:37:40;;;;;;;53.22;38.28;;;4.80;99.90;;;;;;5019467;28;20110;-93
2022/03/24 01:40:08;;;;;;;55.28;35.78;;;5.00;99.90;;;;;;5019749;28;20045;-92
2022/03/24 01:42:36;;;;;;;54.40;35.08;;;4.70;99.90;;;;;;5018725;28;20052;-93
2022/03/24 01:45:03;;;;;;;58.42;37.63;;;4.60;99.90;;;;;;5019639;28;20155;-94
2022/03/24 01:47:30;;;;;;;62.60;41.13;;;4.50;99.90;;;;;;5006192;28;20114;-92
2022/03/24 01:49:58;;;;;;;56.28;37.92;;;4.40;99.90;;;;;;5019662;28;20056;-93
2022/03/24 01:52:26;;;;;;;53.92;38.30;;;4.30;99.90;;;;;;5019033;28;20048;-93
2022/03/24 01:54:57;;;;;;;59.70;37.45;;;4.20;99.90;;;;;;5002980;28;20098;-93
2022/03/24 01:57:26;;;;;;;62.95;39.42;;;4.20;99.90;;;;;;5021414;28;20182;-93
2022/03/24 01:59:54;;;;;;;62.35;39.80;;;4.10;99.90;;;;;;5035656;28;20051;-92
2022/03/24 02:02:27;;;;;;;69.78;41.78;;;4.10;99.90;;;;;;5018899;28;20044;-92
2022/03/24 02:04:53;;;;;;;56.63;37.17;;;4.10;99.90;;;;;;5003028;28;20077;-92
2022/03/24 02:07:20;;;;;;;55.22;35.72;;;4.10;99.90;;;;;;5018832;28;20080;-92
2022/03/24 02:09:46;;;;;;;66.57;39.95;;;4.00;99.90;;;;;;5019485;28;20083;-92
2022/03/24 02:12:13;;;;;;;54.20;37.05;;;4.50;99.90;;;;;;5035212;28;20052;-92
2022/03/24 02:14:42;;;;;;;56.15;38.03;;;4.10;99.90;;;;;;5002107;28;20477;-93
2022/03/24 02:17:08;;;;;;;60.70;39.40;;;4.30;99.90;;;;;;5019286;28;20053;-93
2022/03/24 02:19:36;;;;;;;67.60;41.15;;;4.30;99.90;;;;;;5034435;28;20049;-94
2022/03/24 02:22:13;;;;;;;68.10;41.70;;;4.40;99.90;;;;;;5035346;28;20106;-92
2022/03/24 02:24:39;;;;;;;67.63;40.42;;;4.60;99.90;;;;;;5017963;28;20806;-93
2022/03/24 02:27:06;;;;;;;68.75;39.72;;;4.60;99.90;;;;;;5021088;28;20044;-93
2022/03/24 02:29:31;;;;;;;64.97;38.13;;;4.70;99.90;;;;;;5013770;28;20496;-92
2022/03/24 02:31:58;;;;;;;66.55;40.67;;;5.00;99.90;;;;;;5003156;28;20052;-93
2022/03/24 02:37:11;;;;;;;53.13;34.47;;;5.00;99.90;;;;;;5024719;28;20049;-92
2022/03/24 02:39:52;;;;;;;66.88;38.03;;;5.50;99.90;;;;;;5017968;28;20052;-92
2022/03/24 02:42:21;;;;;;;58.08;38.67;;;4.90;99.90;;;;;;5002305;28;20110;-94
2022/03/24 02:44:55;;;;;;;65.57;36.42;;;4.80;99.90;;;;;;5030162;28;20051;-93
2022/03/24 02:47:21;;;;;;;52.75;33.78;;;4.70;99.90;;;;;;5018905;28;20045;-92
2022/03/24 02:49:50;;;;;;;57.65;37.13;;;4.50;99.90;;;;;;5018448;28;20127;-93
2022/03/24 02:52:16;;;;;;;55.25;35.13;;;4.60;99.90;;;;;;5018400;28;20519;-93
2022/03/24 02:54:43;;;;;;;57.58;39.05;;;4.40;99.90;;;;;;5001553;28;20095;-93
2022/03/24 02:57:10;;;;;;;55.92;38.80;;;4.30;99.90;;;;;;5018430;28;20067;-92
2022/03/24 02:59:36;;;;;;;65.95;39.35;;;4.50;99.90;;;;;;5018068;28;20045;-92
2022/03/24 03:02:14;;;;;;;61.80;38.88;;;4.30;99.90;;;;;;5002185;28;20049;-93
2022/03/24 03:04:41;;;;;;;55.65;37.28;;;4.30;99.90;;;;;;5018052;28;20044;-92
2022/03/24 03:07:11;;;;;;;52.17;34.92;;;4.30;99.90;;;;;;5002130;28;20058;-92
2022/03/24 03:09:39;;;;;;;52.03;35.80;;;4.30;99.90;;;;;;5017856;28;20095;-92
2022/03/24 03:12:05;;;;;;;58.67;37.35;;;4.40;99.90;;;;;;5018334;28;20096;-92
2022/03/24 03:14:32;;;;;;;62.20;39.80;;;4.10;99.90;;;;;;5017259;28;20048;-92
2022/03/24 03:16:59;;;;;;;59.40;39.25;;;4.10;99.90;;;;;;5017756;28;20045;-93
2022/03/24 03:19:26;;;;;;;65.57;40.17;;;4.10;99.90;;;;;;5017246;28;20074;-92
2022/03/24 03:21:57;;;;;;;71.93;39.13;;;4.10;99.90;;;;;;5019096;28;20048;-93
2022/03/24 03:24:24;;;;;;;50.05;34.53;;;4.10;99.90;;;;;;5017374;28;20041;-92
2022/03/24 03:26:55;;;;;;;57.90;36.63;;;4.10;99.90;;;;;;5017688;28;20037;-92
2022/03/24 03:29:24;;;;;;;51.72;32.42;;;4.20;99.90;;;;;;5017469;28;20056;-95
2022/03/24 03:31:52;;;;;;;53.30;33.63;;;4.10;99.90;;;;;;5017762;28;20041;-92
2022/03/24 03:34:17;;;;;;;56.88;35.60;;;4.10;99.90;;;;;;5001563;28;20076;-93
2022/03/24 03:36:44;;;;;;;52.20;33.42;;;4.10;99.90;;;;;;4999991;28;20146;-92
2022/03/24 03:39:10;;;;;;;52.53;33.13;;;3.80;99.90;;;;;;5018061;28;20053;-91
2022/03/24 03:41:37;;;;;;;61.25;36.05;;;3.80;99.90;;;;;;5017453;28;20041;-93
2022/03/24 03:44:04;;;;;;;61.65;38.70;;;3.90;99.90;;;;;;5017699;28;20045;-92
2022/03/24 03:46:31;;;;;;;61.47;37.97;;;3.80;99.90;;;;;;5017397;28;20385;-92
2022/03/24 03:48:57;;;;;;;55.65;37.33;;;4.10;99.90;;;;;;5017922;28;20406;-93
2022/03/24 03:51:23;;;;;;;54.20;36.22;;;3.90;99.90;;;;;;5001394;28;20083;-93
2022/03/24 03:53:49;;;;;;;58.70;38.13;;;3.90;99.90;;;;;;5017445;28;20041;-92
2022/03/24 03:56:15;;;;;;;50.97;35.45;;;3.90;99.90;;;;;;5001530;28;20107;-94
2022/03/24 03:58:41;;;;;;;58.95;39.15;;;3.80;99.90;;;;;;5017220;28;20077;-92
2022/03/24 04:01:09;;;;;;;59.75;37.00;;;3.70;99.90;;;;;;5003925;28;20128;-92
2022/03/24 04:03:37;;;;;;;41.92;27.35;;;3.60;99.90;;;;;;5013241;28;20045;-92
2022/03/24 04:06:06;;;;;;;51.85;32.17;;;3.50;99.90;;;;;;5017729;28;20048;-93
2022/03/24 04:08:35;;;;;;;41.13;28.60;;;3.50;99.90;;;;;;5033828;28;20055;-92
2022/03/24 04:11:01;;;;;;;71.30;41.53;;;3.30;99.90;;;;;;5017630;28;20052;-92
2022/03/24 04:13:28;;;;;;;64.25;41.63;;;3.40;99.90;;;;;;5016942;28;20860;-92
2022/03/24 04:15:54;;;;;;;63.80;39.08;;;3.40;99.90;;;;;;5001529;28;20132;-92
2022/03/24 04:18:22;;;;;;;65.22;36.47;;;3.30;99.90;;;;;;5034059;28;20045;-92
2022/03/24 04:20:49;;;;;;;57.33;35.97;;;3.30;99.90;;;;;;5017192;28;20523;-92
2022/03/24 04:23:15;;;;;;;76.15;41.42;;;3.30;99.90;;;;;;5033798;28;20492;-93
2022/03/24 04:25:42;;;;;;;77.78;43.53;;;3.30;99.90;;;;;;5017373;28;20045;-92
2022/03/24 04:28:08;;;;;;;68.10;42.22;;;3.40;99.90;;;;;;5017183;28;20590;-92
2022/03/24 04:30:35;;;;;;;74.07;42.70;;;3.40;99.90;;;;;;5020926;28;20053;-93
2022/03/24 04:33:01;;;;;;;65.50;43.03;;;3.40;99.90;;;;;;5020607;28;20112;-93
2022/03/24 04:35:28;;;;;;;65.03;41.67;;;3.40;99.90;;;;;;5004565;28;20056;-95
2022/03/24 04:37:57;;;;;;;68.63;40.30;;;3.40;99.90;;;;;;5012200;28;20078;-93
2022/03/24 04:40:25;;;;;;;;;;;3.40;99.90;;;;;;5037526;28;20112;-93
2022/03/24 04:42:54;;;;;;;60.88;40.13;;;3.30;99.90;;;;;;5020948;28;19924;-93
2022/03/24 04:45:22;;;;;;;65.32;41.13;;;3.30;99.90;;;;;;5001136;28;20064;-93
2022/03/24 04:47:50;;;;;;;64.43;41.10;;;3.30;99.90;;;;;;5029282;28;20064;-92
2022/03/24 04:50:20;;;;;;;50.15;33.40;;;3.20;99.90;;;;;;5019960;28;20114;-94
2022/03/24 04:52:55;;;;;;;53.20;31.67;;;3.10;99.90;;;;;;5036760;28;20194;-92
2022/03/24 04:55:23;;;;;;;53.75;34.40;;;3.10;99.90;;;;;;5020643;28;20080;-94
2022/03/24 04:57:56;;;;;;;47.05;29.30;;;2.90;99.90;;;;;;5021599;28;20055;-93
2022/03/24 05:00:43;;;;;;;44.53;28.98;;;2.90;99.90;;;;;;5020516;28;20048;-93
2022/03/24 05:03:23;;;;;;;55.10;31.48;;;2.80;99.90;;;;;;5037515;28;20045;-94
2022/03/24 05:06:02;;;;;;;68.28;40.42;;;2.90;99.90;;;;;;5007378;28;20054;-92
2022/03/24 05:08:29;;;;;;;65.13;39.03;;;3.10;99.90;;;;;;5004979;28;20052;-95
2022/03/24 05:11:18;;;;;;;61.83;39.20;;;3.00;99.90;;;;;;5032822;28;20505;-93
2022/03/24 05:13:56;;;;;;;69.10;42.38;;;3.10;99.90;;;;;;5035838;28;20045;-93
2022/03/24 05:16:28;;;;;;;61.40;38.40;;;3.30;99.90;;;;;;5021507;28;20053;-93
2022/03/24 05:18:57;;;;;;;60.45;36.45;;;3.30;99.90;;;;;;5020695;28;20048;-92
2022/03/24 05:21:24;;;;;;;58.47;36.63;;;3.20;99.90;;;;;;5003891;28;20052;-93
2022/03/24 05:23:50;;;;;;;61.10;36.40;;;3.20;99.90;;;;;;5020040;28;20086;-93
2022/03/24 05:26:23;;;;;;;55.63;33.85;;;3.10;99.90;;;;;;5020428;28;20128;-92
2022/03/24 05:28:53;;;;;;;52.10;32.97;;;3.30;99.90;;;;;;5025433;28;20103;-93
2022/03/24 05:31:29;;;;;;;56.08;34.22;;;2.90;99.90;;;;;;5038068;28;20052;-93
2022/03/24 05:33:55;;;;;;;57.53;32.78;;;2.90;99.90;;;;;;4997586;28;20044;-93
2022/03/24 05:36:35;;;;;;;47.78;31.02;;;2.80;99.90;;;;;;5032912;28;20525;-94
2022/03/24 05:39:03;;;;;;;49.22;31.50;;;2.80;99.90;;;;;;4990352;28;20485;-92
2022/03/24 05:41:49;;;;;;;61.80;38.65;;;2.80;99.90;;;;;;5034170;28;20137;-93
2022/03/24 05:44:38;;;;;;;74.40;39.70;;;2.90;99.90;;;;;;5033232;28;20059;-94
2022/03/24 05:47:05;;;;;;;64.63;38.08;;;3.20;99.90;;;;;;5005271;28;20051;-92
2022/03/24 05:49:31;;;;;;;60.92;37.60;;;3.20;99.90;;;;;;5019504;28;20119;-94
2022/03/24 05:52:00;;;;;;;76.28;42.90;;;3.20;99.90;;;;;;5001984;28;20043;-93
2022/03/24 05:54:29;;;;;;;58.78;37.78;;;3.00;99.90;;;;;;4989129;28;20049;-93
2022/03/24 05:56:58;;;;;;;68.03;38.55;;;3.40;99.90;;;;;;5031163;28;20056;-93
2022/03/24 05:59:38;;;;;;;75.80;40.45;;;3.40;99.90;;;;;;5009195;28;20053;-93
2022/03/24 06:02:06;;;;;;;59.20;38.35;;;3.60;99.90;;;;;;5009792;28;20083;-93
2022/03/24 06:04:33;;;;;;;49.88;31.50;;;3.70;99.90;;;;;;5014029;28;20060;-95
2022/03/24 06:07:01;;;;;;;58.45;34.97;;;3.70;99.90;;;;;;5015866;28;20038;-93
2022/03/24 06:09:34;;;;;;;65.18;40.55;;;3.80;99.90;;;;;;5018599;28;20132;-93
2022/03/24 06:12:10;;;;;;;63.55;40.00;;;4.10;99.90;;;;;;5018164;28;20045;-93
2022/03/24 06:14:36;;;;;;;57.08;35.88;;;4.40;99.90;;;;;;5019693;28;20093;-93
2022/03/24 06:17:05;;;;;;;69.65;40.72;;;4.60;99.90;;;;;;5019229;28;20049;-93
2022/03/24 06:19:35;;;;;;;69.97;41.08;;;4.80;99.90;;;;;;5035698;28;20045;-95
2022/03/24 06:22:02;;;;;;;77.07;42.88;;;4.70;99.90;;;;;;5018991;28;20045;-93
2022/03/24 06:24:39;;;;;;;73.35;41.78;;;5.20;99.90;;;;;;5018737;28;20066;-93
2022/03/24 06:27:10;;;;;;;72.47;40.10;;;4.60;99.90;;;;;;5019498;28;20091;-93
2022/03/24 06:29:37;;;;;;;62.47;38.30;;;4.70;99.90;;;;;;5016238;28;20527;-95
2022/03/24 06:32:05;;;;;;;75.18;41.38;;;4.90;99.90;;;;;;5017989;28;20045;-93
2022/03/24 06:34:31;;;;;;;85.75;45.95;;;5.30;99.90;;;;;;5029771;28;20511;-93
2022/03/24 06:37:01;;;;;;;83.78;42.75;;;5.80;99.90;;;;;;5002280;28;20041;-93
2022/03/24 06:39:27;;;;;;;55.30;31.85;;;6.20;99.90;;;;;;4999453;28;20045;-94
2022/03/24 06:41:54;;;;;;;81.90;45.92;;;6.50;99.90;;;;;;5001366;28;20047;-93
2022/03/24 06:44:20;;;;;;;91.07;47.55;;;6.80;99.90;;;;;;5026346;28;20072;-93
2022/03/24 06:46:46;;;;;;;83.63;48.08;;;7.00;99.90;;;;;;5017820;28;20626;-93
2022/03/24 06:49:14;;;;;;;82.85;48.97;;;7.10;99.90;;;;;;5002310;28;20075;-93
2022/03/24 06:51:41;;;;;;;96.28;50.72;;;7.20;99.90;;;;;;5033860;28;20120;-93
2022/03/24 06:54:11;;;;;;;96.30;49.65;;;7.10;99.90;;;;;;5035300;28;20408;-93
2022/03/24 06:56:38;;;;;;;109.03;54.47;;;7.10;99.90;;;;;;5000125;28;20087;-95
2022/03/24 06:59:04;;;;;;;112.20;55.22;;;7.10;99.90;;;;;;4996800;28;20053;-93
2022/03/24 07:01:30;;;;;;;119.65;57.53;;;7.30;99.90;;;;;;5009638;28;20076;-93
2022/03/24 07:03:56;;;;;;;127.65;59.63;;;7.20;99.90;;;;;;5017364;28;20041;-93
2022/03/24 07:06:21;;;;;;;121.65;56.08;;;7.40;99.90;;;;;;5018371;28;20037;-93
2022/03/24 07:08:47;;;;;;;106.78;53.70;;;7.60;99.90;;;;;;5017991;28;20063;-93
2022/03/24 07:11:14;;;;;;;90.22;47.80;;;7.70;99.90;;;;;;5002126;28;20550;-94
2022/03/24 07:13:42;;;;;;;85.03;47.75;;;7.80;99.90;;;;;;5034485;28;20075;-94
2022/03/24 07:16:08;;;;;;;86.38;46.90;;;8.00;99.90;;;;;;5001628;28;20140;-93
2022/03/24 07:18:36;;;;;;;76.05;44.67;;;8.20;99.90;;;;;;5017784;28;20045;-93
2022/03/24 07:21:06;;;;;;;81.80;44.33;;;8.30;99.90;;;;;;5034213;28;20053;-93
2022/03/24 07:23:39;;;;;;;84.82;45.22;;;8.50;99.90;;;;;;5001747;28;20037;-93
2022/03/24 07:26:13;;;;;;;74.68;44.28;;;8.70;99.90;;;;;;5034459;28;20044;-94
2022/03/24 07:28:52;;;;;;;77.63;42.45;;;8.80;99.90;;;;;;5035072;28;20045;-94
2022/03/24 07:31:22;;;;;;;78.72;44.30;;;9.00;99.90;;;;;;4998057;28;20100;-93
2022/03/24 07:33:50;;;;;;;85.68;44.22;;;9.20;99.90;;;;;;4995466;28;20054;-92
2022/03/24 07:36:20;;;;;;;79.35;46.58;;;9.30;99.90;;;;;;5011177;28;20058;-92
2022/03/24 07:38:46;;;;;;;;;;;9.50;99.90;;;;;;5011641;28;20042;-92
2022/03/24 07:41:12;;;;;;;81.65;45.63;;;9.70;99.90;;;;;;4993492;28;19922;-93
2022/03/24 07:43:38;;;;;;;87.68;44.35;;;9.70;99.90;;;;;;4962334;28;20044;-92
2022/03/24 07:46:04;;;;;;;86.30;43.97;;;9.80;99.90;;;;;;5011080;28;20046;-92
2022/03/24 07:48:31;;;;;;;83.18;43.08;;;10.00;99.90;;;;;;4994854;28;20521;-93
2022/03/24 07:50:59;;;;;;;73.65;43.05;;;10.10;99.90;;;;;;5011225;28;20054;-93
2022/03/24 07:53:31;;;;;;;78.80;42.78;;;10.20;99.90;;;;;;5020166;28;20038;-92
2022/03/24 07:55:58;;;;;;;73.75;42.03;;;10.30;99.90;;;;;;4991117;28;20053;-93
2022/03/24 07:58:25;;;;;;;74.65;42.67;;;10.40;99.90;;;;;;5001420;28;20563;-93
2022/03/24 08:00:59;;;;;;;69.50;40.85;;;10.50;99.90;;;;;;4990753;28;20049;-94
2022/03/24 08:03:25;;;;;;;68.82;40.72;;;10.60;99.90;;;;;;4988463;28;20050;-93
2022/03/24 08:05:52;;;;;;;75.60;40.53;;;10.70;99.90;;;;;;4997568;28;20080;-92
2022/03/24 08:08:18;;;;;;;74.10;41.03;;;10.80;99.90;;;;;;4981980;28;20050;-92
2022/03/24 08:10:46;;;;;;;66.30;39.70;;;11.00;99.90;;;;;;4998028;28;20041;-93
2022/03/24 08:13:13;;;;;;;66.80;39.42;;;11.10;99.90;;;;;;4998270;28;20052;-92
2022/03/24 08:15:40;;;;;;;67.63;37.78;;;11.20;99.90;;;;;;4981817;28;20490;-92
2022/03/24 08:18:08;;;;;;;58.47;35.50;;;11.20;99.90;;;;;;5014050;28;20052;-92
2022/03/24 08:20:37;;;;;;;60.42;37.17;;;11.30;99.90;;;;;;4982244;28;20100;-92
2022/03/24 08:23:08;;;;;;;56.85;35.55;;;11.40;99.90;;;;;;4992118;28;20045;-93
2022/03/24 08:25:42;;;;;;;67.00;37.10;;;11.50;99.90;;;;;;5011776;28;20141;-92
2022/03/24 08:28:10;;;;;;;66.72;35.35;;;11.50;99.90;;;;;;4997109;28;20077;-93
2022/03/24 08:30:58;;;;;;;58.17;32.58;;;11.70;99.90;;;;;;5019192;28;20081;-94
2022/03/24 08:33:33;;;;;;;56.97;33.00;;;11.70;99.90;;;;;;5007178;28;20045;-95
2022/03/24 08:35:59;;;;;;;62.92;33.80;;;11.80;99.90;;;;;;4996295;28;20145;-93
2022/03/24 08:38:25;;;;;;;55.70;35.67;;;11.90;99.90;;;;;;5030935;28;20048;-93
2022/03/24 08:40:54;;;;;;;61.08;34.20;;;12.00;99.90;;;;;;5014620;28;20056;-94
2022/03/24 08:43:20;;;;;;;66.10;38.95;;;12.00;99.90;;;;;;5015640;28;20604;-93
2022/03/24 08:45:46;;;;;;;71.75;39.97;;;12.10;99.90;;;;;;5005290;28;20045;-95
2022/03/24 08:48:11;;;;;;;63.53;39.20;;;12.10;99.90;;;;;;5011162;28;20049;-93
2022/03/24 08:50:59;;;;;;;70.18;39.53;;;12.10;99.90;;;;;;5019979;28;20041;-95
2022/03/24 08:53:25;;;;;;;60.90;39.28;;;12.10;99.90;;;;;;5005172;28;20047;-93
2022/03/24 08:55:55;;;;;;;66.32;40.10;;;12.20;99.90;;;;;;5017941;28;20108;-95
2022/03/24 08:58:21;;;;;;;68.38;40.67;;;12.10;99.90;;;;;;5014574;28;20046;-95
2022/03/24 09:00:50;;;;;;;61.05;38.55;;;12.20;99.90;;;;;;5008283;28;20042;-95
2022/03/24 09:03:17;;;;;;;72.60;38.97;;;12.20;99.90;;;;;;5024820;28;20092;-95
2022/03/24 09:05:46;;;;;;;67.07;36.92;;;12.30;99.90;;;;;;5011563;28;20128;-94
2022/03/24 09:08:12;;;;;;;64.57;35.35;;;12.40;99.90;;;;;;5025355;28;20061;-94
2022/03/24 09:10:38;;;;;;;58.45;34.38;;;12.40;99.90;;;;;;4980987;28;20045;-94
2022/03/24 09:13:04;;;;;;;60.13;33.15;;;12.50;99.90;;;;;;5032153;28;20355;-94
2022/03/24 09:15:30;;;;;;;54.00;32.65;;;12.50;99.90;;;;;;5028690;28;20049;-94
2022/03/24 09:17:56;;;;;;;59.05;35.05;;;12.60;99.90;;;;;;5015726;28;20053;-94
2022/03/24 09:20:23;;;;;;;52.55;33.90;;;12.60;99.90;;;;;;5016398;28;20045;-96
2022/03/24 09:22:49;;;;;;;58.13;34.00;;;12.60;99.90;;;;;;5000818;28;20515;-96
2022/03/24 09:25:19;;;;;;;60.83;33.80;;;12.60;99.90;;;;;;5005859;28;20045;-94
2022/03/24 09:27:45;;;;;;;56.97;34.00;;;12.60;99.90;;;;;;5008149;28;20045;-95
2022/03/24 09:30:14;;;;;;;61.90;33.88;;;12.60;99.90;;;;;;5015804;28;20053;-94
2022/03/24 09:32:40;;;;;;;64.18;30.33;;;12.50;99.90;;;;;;5018046;28;20120;-95
2022/03/24 09:35:11;;;;;;;58.05;33.30;;;12.50;99.90;;;;;;4992000;28;20512;-94
2022/03/24 09:37:38;;;;;;;52.53;33.63;;;12.50;99.90;;;;;;5011429;28;20052;-93
2022/03/24 09:40:06;;;;;;;56.70;33.25;;;12.50;99.90;;;;;;5031950;28;20045;-94
2022/03/24 09:42:33;;;;;;;73.85;35.65;;;12.50;99.90;;;;;;5010574;28;20111;-92
2022/03/24 09:45:01;;;;;;;59.17;33.22;;;12.50;99.90;;;;;;5031605;28;20045;-93
2022/03/24 09:47:28;;;;;;;65.10;34.50;;;12.50;99.90;;;;;;5012378;28;20046;-94
2022/03/24 09:49:55;;;;;;;62.83;34.40;;;12.50;99.90;;;;;;5028273;28;20046;-94
2022/03/24 09:52:22;;;;;;;56.90;34.85;;;12.60;99.90;;;;;;5011255;28;20045;-95
2022/03/24 09:54:48;;;;;;;53.78;32.35;;;12.70;99.90;;;;;;4991716;28;20069;-94
2022/03/24 09:57:20;;;;;;;50.60;28.73;;;12.70;99.90;;;;;;5020746;28;20041;-94
2022/03/24 09:59:46;;;;;;;47.28;28.45;;;12.70;96.80;;;;;;5020831;28;20053;-94
2022/03/24 10:02:16;;;;;;;56.22;29.33;;;12.50;93.60;;;;;;5010896;28;20037;-94
2022/03/24 10:04:50;;;;;;;58.17;28.60;;;12.40;92.60;;;;;;5008657;28;20041;-94
2022/03/24 10:07:18;;;;;;;50.47;28.63;;;12.40;93.80;;;;;;5013030;28;20369;-93
2022/03/24 10:09:49;;;;;;;44.78;28.38;;;12.40;91.70;;;;;;5012297;28;20042;-94
2022/03/24 10:12:33;;;;;;;52.90;30.85;;;12.50;96.70;;;;;;5014927;28;20041;-94
2022/03/24 10:15:08;;;;;;;53.15;30.88;;;12.60;97.90;;;;;;5028705;28;20791;-94
2022/03/24 10:17:34;;;;;;;48.50;31.00;;;12.80;99.90;;;;;;5012471;28;20045;-94
2022/03/24 10:20:08;;;;;;;57.22;30.40;;;12.90;99.90;;;;;;5022445;28;20045;-96
2022/03/24 10:22:35;;;;;;;56.83;32.78;;;13.10;99.90;;;;;;5031004;28;20037;-94
2022/03/24 10:25:05;;;;;;;53.00;30.75;;;13.20;99.90;;;;;;5011077;28;20128;-94
2022/03/24 10:27:34;;;;;;;53.45;30.80;;;13.30;97.60;;;;;;5014682;28;20127;-95
2022/03/24 10:30:00;;;;;;;52.55;29.42;;;13.40;96.20;;;;;;5029541;28;20126;-94
2022/03/24 10:32:31;;;;;;;48.05;29.02;;;13.50;95.20;;;;;;5015255;28;20065;-95
2022/03/24 10:35:13;;;;;;;48.63;28.27;;;13.50;92.20;;;;;;5019500;28;20497;-94
2022/03/24 10:37:51;;;;;;;47.50;28.55;;;13.60;92.60;;;;;;5027029;28;20398;-96
2022/03/24 10:40:20;;;;;;;59.03;28.50;;;13.70;91.00;;;;;;5030296;28;20132;-96
2022/03/24 10:42:46;;;;;;;50.80;29.10;;;13.60;79.90;;;;;;5032964;28;20060;-95
2022/03/24 10:45:22;;;;;;;49.28;28.27;;;13.70;89.00;;;;;;5029805;28;20048;-95
2022/03/24 10:47:55;;;;;;;57.30;33.13;;;13.50;78.50;;;;;;5015618;28;20067;-94
2022/03/24 10:50:30;;;;;;;63.05;32.75;;;13.50;95.60;;;;;;5015100;28;20045;-94
2022/03/24 10:53:11;;;;;;;58.75;32.67;;;13.60;94.70;;;;;;5016472;28;20045;-96
2022/03/24 10:55:50;;;;;;;56.53;32.08;;;13.60;95.90;;;;;;5011601;28;20497;-94
2022/03/24 10:58:24;;;;;;;61.35;32.60;;;13.60;90.00;;;;;;5034079;28;20052;-93
2022/03/24 11:01:00;;;;;;;59.75;33.65;;;13.50;89.80;;;;;;5013076;28;20076;-95
2022/03/24 11:03:26;;;;;;;59.55;31.33;;;13.50;89.60;;;;;;5026092;28;20041;-94
2022/03/24 11:05:52;;;;;;;61.08;31.50;;;13.50;81.50;;;;;;4999584;28;20055;-93
2022/03/24 11:08:19;;;;;;;51.25;31.08;;;13.60;90.50;;;;;;5014927;28;20655;-93
2022/03/24 11:10:47;;;;;;;59.25;33.53;;;13.70;83.90;;;;;;5017248;28;20128;-94
2022/03/24 11:13:30;;;;;;;62.15;35.25;;;13.60;81.60;;;;;;5001333;28;20037;-94
2022/03/24 11:15:57;;;;;;;59.97;33.67;;;13.40;89.50;;;;;;5028352;28;20075;-94
2022/03/24 11:18:24;;;;;;;64.25;36.13;;;13.40;91.60;;;;;;5017516;28;20131;-94
2022/03/24 11:20:53;;;;;;;60.55;34.10;;;13.40;82.20;;;;;;5017762;28;20124;-93
2022/03/24 11:23:29;;;;;;;62.80;37.22;;;13.40;90.20;;;;;;5016460;28;20068;-94
2022/03/24 11:25:57;;;;;;;62.30;36.78;;;13.50;90.20;;;;;;5017853;28;20044;-94
2022/03/24 11:28:26;;;;;;;64.35;37.50;;;13.40;91.30;;;;;;5015644;28;20041;-94
2022/03/24 11:30:53;;;;;;;59.63;39.55;;;13.10;94.30;;;;;;5017368;28;20505;-94
2022/03/24 11:33:20;;;;;;;59.42;38.88;;;13.30;99.90;;;;;;5012493;28;20045;-93
2022/03/24 11:35:49;;;;;;;61.75;41.65;;;13.50;98.70;;;;;;5016360;28;20052;-92
2022/03/24 11:38:15;;;;;;;62.85;40.97;;;13.60;99.90;;;;;;5018736;28;20041;-93
2022/03/24 11:40:41;;;;;;;76.72;46.10;;;13.70;99.90;;;;;;5025869;28;20070;-93
2022/03/24 11:43:16;;;;;;;65.68;43.80;;;13.70;99.90;;;;;;5036183;28;20859;-94
2022/03/24 11:45:54;;;;;;;76.40;45.85;;;13.30;99.90;;;;;;5026113;28;20049;-93
2022/03/24 11:48:35;;;;;;;71.28;47.80;;;13.10;99.90;;;;;;5012622;28;20697;-95
2022/03/24 11:51:23;;;;;;;76.97;51.15;;;12.90;99.90;;;;;;5013358;28;20072;-95
2022/03/24 11:54:04;;;;;;;76.65;48.97;;;12.90;99.90;;;;;;5020677;28;20099;-93
2022/03/24 11:56:30;;;;;;;72.15;51.15;;;12.90;99.90;;;;;;5028264;28;20059;-93
2022/03/24 11:58:56;;;;;;;80.40;51.55;;;13.00;99.90;;;;;;4988467;28;20047;-94
2022/03/24 12:01:24;;;;;;;76.50;50.67;;;13.10;99.90;;;;;;5021578;28;20045;-94
2022/03/24 12:04:08;;;;;;;79.30;48.42;;;13.10;99.90;;;;;;5027858;28;20101;-94
2022/03/24 12:06:51;;;;;;;71.43;48.42;;;13.20;99.90;;;;;;5023178;28;20049;-93
2022/03/24 12:09:28;;;;;;;72.40;48.63;;;13.10;99.90;;;;;;5028489;28;20057;-93
2022/03/24 12:12:04;;;;;;;76.53;52.47;;;13.10;99.90;;;;;;5004884;28;20045;-95
2022/03/24 12:14:36;;;;;;;75.50;50.88;;;13.10;99.90;;;;;;5033018;28;20041;-94
2022/03/24 12:17:26;;;;;;;80.13;50.53;;;13.10;99.90;;;;;;5018783;28;20057;-95
2022/03/24 12:19:56;;;;;;;63.88;39.00;;;13.20;99.90;;;;;;5020185;28;20400;-94
2022/03/24 12:22:25;;;;;;;;;;;13.10;99.90;;;;;;5001317;28;20053;-93
2022/03/24 12:25:10;;;;;;;67.55;42.25;;;13.20;99.90;;;;;;5018678;28;20322;-94
2022/03/24 12:28:06;;;;;;;71.55;44.95;;;13.40;99.70;;;;;;5028946;28;20041;-94
2022/03/24 12:30:47;;;;;;;75.78;46.42;;;13.50;98.60;;;;;;5021170;28;20501;-95
2022/03/24 12:33:15;;;;;;;65.95;45.50;;;13.60;99.90;;;;;;4996427;28;20053;-94
2022/03/24 12:35:51;;;;;;;70.97;43.83;;;13.60;95.60;;;;;;4994143;28;20104;-94
2022/03/24 12:38:28;;;;;;;59.33;39.28;;;13.60;96.60;;;;;;5010946;28;20113;-94
2022/03/24 12:41:06;;;;;;;57.92;40.05;;;13.60;87.70;;;;;;4995872;28;20049;-94
2022/03/24 12:43:46;;;;;;;68.70;43.92;;;13.60;87.60;;;;;;4995818;28;20050;-94
2022/03/24 12:46:18;;;;;;;;;;;13.70;95.40;;;;;;4996112;28;20129;-93
2022/03/24 12:48:44;;;;;;;75.20;45.90;;;13.90;98.90;;;;;;4990788;28;20333;-95